Time;durP1;ratioP1;P1;durP2;ratioP2;P2;SDS_P1;SDS_P2;PMS_P1;PMS_P2;Temp;Humidity;BMP_temperature;BMP_pressure;BME280_temperature;BME280_humidity;BME280_pressure;Samples;Min_cycle;Max_cycle;Signal;HPM_P1;HPM_P2
2022/05/17 00:00:59;;;;;;;9.00;6.60;;;14.50;99.90;;;;;;5055589;28;20196;-63
2022/05/17 00:03:26;;;;;;;9.03;6.40;;;14.50;99.90;;;;;;5055639;28;20664;-63
2022/05/17 00:05:55;;;;;;;8.73;6.27;;;14.50;99.90;;;;;;5055859;28;20575;-63
2022/05/17 00:08:22;;;;;;;7.43;6.10;;;14.50;99.90;;;;;;5055809;28;20211;-63
2022/05/17 00:10:49;;;;;;;8.00;6.17;;;14.40;99.90;;;;;;5055904;28;20191;-64
2022/05/17 00:13:16;;;;;;;7.70;6.00;;;14.40;99.90;;;;;;5055777;28;20204;-63
2022/05/17 00:15:46;;;;;;;9.70;6.80;;;14.20;99.90;;;;;;5055459;28;20207;-64
2022/05/17 00:18:14;;;;;;;9.00;5.90;;;14.30;99.90;;;;;;5055671;28;20190;-63
2022/05/17 00:20:43;;;;;;;9.50;6.20;;;14.30;99.90;;;;;;5055663;28;20257;-63
2022/05/17 00:23:15;;;;;;;8.37;6.47;;;14.20;99.90;;;;;;5055312;28;20253;-63
2022/05/17 00:25:43;;;;;;;10.13;6.17;;;14.20;99.90;;;;;;5055482;28;20241;-64
2022/05/17 00:28:10;;;;;;;8.00;6.13;;;14.20;99.90;;;;;;5055212;28;20211;-63
2022/05/17 00:30:37;;;;;;;8.27;5.57;;;14.20;99.90;;;;;;5055402;28;20188;-63
2022/05/17 00:33:05;;;;;;;7.73;5.97;;;14.30;99.90;;;;;;5055387;28;20664;-63
2022/05/17 00:35:32;;;;;;;9.03;6.00;;;14.30;99.90;;;;;;5055402;28;20203;-63
2022/05/17 00:37:59;;;;;;;6.97;5.20;;;14.40;99.90;;;;;;5055324;28;20254;-64
2022/05/17 00:40:27;;;;;;;8.63;5.50;;;14.40;99.90;;;;;;5055287;28;20204;-64
2022/05/17 00:42:54;;;;;;;7.97;6.17;;;14.10;99.90;;;;;;5054931;28;20294;-64
2022/05/17 00:45:21;;;;;;;9.83;6.67;;;13.50;99.90;;;;;;5055193;28;20199;-63
2022/05/17 00:47:53;;;;;;;12.00;6.53;;;13.40;99.90;;;;;;5054759;28;20226;-63
2022/05/17 00:50:27;;;;;;;8.20;5.63;;;13.30;99.90;;;;;;5054847;28;20555;-64
2022/05/17 00:52:57;;;;;;;6.50;5.47;;;13.30;99.90;;;;;;5055069;28;20187;-63
2022/05/17 00:55:29;;;;;;;9.77;6.67;;;13.40;99.90;;;;;;5054860;28;20212;-64
2022/05/17 00:58:01;;;;;;;10.57;6.17;;;13.40;99.90;;;;;;5055110;28;20183;-63
2022/05/17 01:00:31;;;;;;;10.43;7.00;;;13.50;99.90;;;;;;5054896;28;20597;-63
2022/05/17 01:03:01;;;;;;;11.30;6.90;;;13.60;99.90;;;;;;5054929;28;20188;-63
2022/05/17 01:05:30;;;;;;;8.03;7.10;;;13.70;99.90;;;;;;5054804;28;20663;-63
2022/05/17 01:08:00;;;;;;;11.53;7.00;;;13.80;99.90;;;;;;5054836;28;20203;-63
2022/05/17 01:10:30;;;;;;;8.60;6.73;;;13.70;99.90;;;;;;5054721;28;20204;-64
2022/05/17 01:15:43;;;;;;;7.30;6.23;;;13.80;99.90;;;;;;5054403;28;20176;-63
2022/05/17 01:18:10;;;;;;;8.17;7.03;;;13.70;99.90;;;;;;5054576;28;20202;-63
2022/05/17 01:20:38;;;;;;;11.43;7.60;;;13.60;99.90;;;;;;5054556;28;20600;-63
2022/05/17 01:23:07;;;;;;;7.97;6.27;;;13.70;99.90;;;;;;5054500;28;20580;-63
2022/05/17 01:25:34;;;;;;;10.83;6.33;;;13.70;99.90;;;;;;5054416;28;20484;-64
2022/05/17 01:28:06;;;;;;;6.40;5.80;;;13.60;99.90;;;;;;5053645;28;20220;-63
2022/05/17 01:30:33;;;;;;;6.30;5.67;;;13.60;99.90;;;;;;5054290;28;20191;-63
2022/05/17 01:33:00;;;;;;;8.73;5.90;;;13.60;99.90;;;;;;5054294;28;20195;-63
2022/05/17 01:35:27;;;;;;;9.23;5.90;;;13.70;99.90;;;;;;5054195;28;20645;-61
2022/05/17 01:37:56;;;;;;;6.73;5.67;;;13.70;99.90;;;;;;5054168;28;20214;-62
2022/05/17 01:40:26;;;;;;;8.93;5.47;;;13.60;99.90;;;;;;5054211;28;20370;-62
2022/05/17 01:42:53;;;;;;;6.33;5.63;;;13.60;99.90;;;;;;5054121;28;20192;-62
2022/05/17 01:45:20;;;;;;;8.03;6.60;;;13.60;99.90;;;;;;5054165;28;20570;-61
2022/05/17 01:47:47;;;;;;;6.97;5.60;;;13.50;99.90;;;;;;5053558;28;20223;-61
2022/05/17 01:50:14;;;;;;;6.50;5.87;;;13.50;99.90;;;;;;5053995;28;20207;-62
2022/05/17 01:52:42;;;;;;;7.70;6.53;;;13.60;99.90;;;;;;5053905;28;20203;-61
2022/05/17 01:55:09;;;;;;;6.90;5.53;;;13.70;99.90;;;;;;5053795;28;20203;-62
2022/05/17 01:57:37;;;;;;;6.80;6.03;;;13.60;99.90;;;;;;5053377;28;20200;-62
2022/05/17 02:00:08;;;;;;;8.20;5.80;;;13.50;99.90;;;;;;5053768;28;20211;-62
2022/05/17 02:02:36;;;;;;;6.97;6.17;;;13.50;99.90;;;;;;5053789;28;20184;-61
2022/05/17 02:05:03;;;;;;;11.87;6.80;;;13.50;99.90;;;;;;5053846;28;20192;-62
2022/05/17 02:07:30;;;;;;;9.00;6.03;;;13.60;99.90;;;;;;5053498;28;20220;-63
2022/05/17 02:09:57;;;;;;;10.07;6.20;;;13.50;99.90;;;;;;5053590;28;20202;-63
2022/05/17 02:12:24;;;;;;;6.70;5.97;;;13.50;99.90;;;;;;5053483;28;20632;-63
2022/05/17 02:14:53;;;;;;;7.03;6.20;;;13.50;99.90;;;;;;5053471;28;20509;-63
2022/05/17 02:17:20;;;;;;;10.77;7.90;;;13.50;99.90;;;;;;5053416;28;20200;-63
2022/05/17 02:19:47;;;;;;;10.17;7.60;;;13.60;99.90;;;;;;5052905;28;20215;-63
2022/05/17 02:22:14;;;;;;;10.00;7.53;;;13.60;99.90;;;;;;5053394;28;20203;-63
2022/05/17 02:24:40;;;;;;;10.33;7.90;;;13.70;99.90;;;;;;5053126;28;20501;-64
2022/05/17 02:27:08;;;;;;;9.83;8.20;;;13.60;99.90;;;;;;5053212;28;20202;-63
2022/05/17 02:29:35;;;;;;;8.67;7.77;;;13.60;99.90;;;;;;5052711;28;20244;-63
2022/05/17 02:32:03;;;;;;;6.73;6.13;;;13.40;99.90;;;;;;5053165;28;20199;-63
2022/05/17 02:34:31;;;;;;;6.20;5.03;;;13.20;99.90;;;;;;5052794;28;20214;-63
2022/05/17 02:36:58;;;;;;;6.47;5.87;;;13.10;99.90;;;;;;5052992;28;20214;-63
2022/05/17 02:39:25;;;;;;;8.43;7.60;;;13.10;99.90;;;;;;5053009;28;20532;-63
2022/05/17 02:41:52;;;;;;;11.63;9.37;;;13.20;99.90;;;;;;5053001;28;20199;-63
2022/05/17 02:44:19;;;;;;;8.00;7.13;;;13.20;99.90;;;;;;5052653;28;20204;-63
2022/05/17 02:46:46;;;;;;;7.93;7.23;;;13.00;99.90;;;;;;5052869;28;20196;-63
2022/05/17 02:49:14;;;;;;;9.07;7.13;;;13.00;99.90;;;;;;5052528;28;20224;-63
2022/05/17 02:51:41;;;;;;;10.37;7.90;;;13.10;99.90;;;;;;5052809;28;20204;-63
2022/05/17 02:54:10;;;;;;;9.77;7.37;;;13.10;99.90;;;;;;5052808;28;20238;-63
2022/05/17 02:56:38;;;;;;;8.17;6.73;;;13.30;99.90;;;;;;5052466;28;20241;-64
2022/05/17 02:59:05;;;;;;;10.37;7.60;;;13.20;99.90;;;;;;5052605;28;20207;-63
2022/05/17 03:01:33;;;;;;;8.33;6.63;;;13.30;99.90;;;;;;5052292;28;20675;-63
2022/05/17 03:04:00;;;;;;;10.63;7.20;;;13.30;99.90;;;;;;5052316;28;20233;-63
2022/05/17 03:06:29;;;;;;;9.33;7.30;;;13.40;99.90;;;;;;5052202;28;20660;-63
2022/05/17 03:08:56;;;;;;;8.90;6.87;;;13.50;99.90;;;;;;5052574;28;20227;-63
2022/05/17 03:11:23;;;;;;;8.97;7.10;;;13.60;99.90;;;;;;5052159;28;20202;-63
2022/05/17 03:13:50;;;;;;;7.83;6.90;;;13.60;99.90;;;;;;5052478;28;20203;-63
2022/05/17 03:16:17;;;;;;;7.43;6.63;;;13.60;99.90;;;;;;5052477;28;20279;-63
2022/05/17 03:18:44;;;;;;;8.23;6.70;;;13.70;99.90;;;;;;5052487;28;20290;-63
2022/05/17 03:21:11;;;;;;;8.93;6.47;;;13.80;99.90;;;;;;5052095;28;20211;-63
2022/05/17 03:23:39;;;;;;;8.80;6.40;;;13.90;99.90;;;;;;5052345;28;20191;-63
2022/05/17 03:26:06;;;;;;;8.33;6.37;;;14.00;99.90;;;;;;5052228;28;20231;-64
2022/05/17 03:28:33;;;;;;;8.47;6.73;;;14.10;99.90;;;;;;5051676;28;20591;-63
2022/05/17 03:31:00;;;;;;;8.77;6.93;;;14.20;99.90;;;;;;5051407;28;20212;-63
2022/05/17 03:33:27;;;;;;;7.23;6.13;;;14.20;99.90;;;;;;5052254;28;20269;-63
2022/05/17 03:35:54;;;;;;;10.77;6.80;;;14.20;99.90;;;;;;5052353;28;20298;-62
2022/05/17 03:38:21;;;;;;;10.00;6.37;;;14.30;99.90;;;;;;5052206;28;20603;-63
2022/05/17 03:40:50;;;;;;;9.70;5.87;;;14.40;99.90;;;;;;5052153;28;20196;-63
2022/05/17 03:43:17;;;;;;;8.57;6.27;;;14.50;99.90;;;;;;5051803;28;20214;-63
2022/05/17 03:45:44;;;;;;;7.43;5.83;;;14.60;99.90;;;;;;5051878;28;20199;-63
2022/05/17 03:48:11;;;;;;;11.03;5.90;;;14.60;99.90;;;;;;5052280;28;20211;-63
2022/05/17 03:50:39;;;;;;;7.33;5.67;;;14.70;99.90;;;;;;5052370;28;20204;-64
2022/05/17 03:53:06;;;;;;;7.37;5.60;;;14.70;99.90;;;;;;5051966;28;20210;-63
2022/05/17 03:55:33;;;;;;;6.17;5.30;;;14.70;99.90;;;;;;5051941;28;20202;-64
2022/05/17 03:58:02;;;;;;;9.83;6.70;;;14.80;99.90;;;;;;5051617;28;20253;-63
2022/05/17 04:00:30;;;;;;;7.20;5.43;;;14.90;99.90;;;;;;5051690;28;20204;-62
2022/05/17 04:02:57;;;;;;;7.97;5.90;;;15.00;99.90;;;;;;5051554;28;20207;-63
2022/05/17 04:05:24;;;;;;;7.33;5.63;;;15.10;99.90;;;;;;5052045;28;20203;-63
2022/05/17 04:07:51;;;;;;;7.33;5.87;;;15.00;99.90;;;;;;5051955;28;20222;-63
2022/05/17 04:10:19;;;;;;;6.97;5.90;;;14.90;99.90;;;;;;5052229;28;20195;-63
2022/05/17 04:12:46;;;;;;;9.03;6.20;;;14.90;99.90;;;;;;5051967;28;20203;-63
2022/05/17 04:15:17;;;;;;;9.80;5.60;;;14.80;99.90;;;;;;5051963;28;20207;-62
2022/05/17 04:17:44;;;;;;;9.20;6.07;;;14.90;99.90;;;;;;5051918;28;20188;-63
2022/05/17 04:20:13;;;;;;;8.10;5.60;;;14.80;99.90;;;;;;5051814;28;20538;-63
2022/05/17 04:22:43;;;;;;;8.97;5.40;;;14.90;99.90;;;;;;5051503;28;20598;-63
2022/05/17 04:25:11;;;;;;;8.97;6.00;;;15.00;99.90;;;;;;5051695;28;20258;-63
2022/05/17 04:27:38;;;;;;;7.83;5.60;;;15.00;99.90;;;;;;5051700;28;20211;-63
2022/05/17 04:30:06;;;;;;;8.90;5.87;;;15.00;99.90;;;;;;5051582;28;20270;-63
2022/05/17 04:32:35;;;;;;;8.37;5.70;;;15.00;99.90;;;;;;5051721;28;20303;-63
2022/05/17 04:35:02;;;;;;;7.10;5.60;;;15.10;99.90;;;;;;5051665;28;20210;-63
2022/05/17 04:37:29;;;;;;;7.67;5.30;;;15.00;99.90;;;;;;5051348;28;20191;-63
2022/05/17 04:39:56;;;;;;;5.87;5.33;;;15.10;99.90;;;;;;5051872;28;20226;-64
2022/05/17 04:42:23;;;;;;;6.93;5.30;;;15.20;99.90;;;;;;5053612;28;20283;-64
2022/05/17 04:44:50;;;;;;;8.33;5.60;;;15.30;99.90;;;;;;5055263;28;20202;-63
2022/05/17 04:47:17;;;;;;;8.03;5.80;;;15.20;99.90;;;;;;5055472;28;20215;-63
2022/05/17 04:49:46;;;;;;;6.93;5.20;;;15.10;99.90;;;;;;5055174;28;20219;-64
2022/05/17 04:52:13;;;;;;;6.50;4.80;;;15.20;99.90;;;;;;5054936;28;20210;-65
2022/05/17 04:54:40;;;;;;;5.80;4.73;;;15.40;99.90;;;;;;5054931;28;20279;-64
2022/05/17 04:57:08;;;;;;;5.27;4.77;;;15.30;99.90;;;;;;5055096;28;20243;-65
2022/05/17 04:59:34;;;;;;;6.47;5.00;;;15.30;99.90;;;;;;5054969;28;20197;-64
2022/05/17 05:02:01;;;;;;;7.03;6.13;;;15.50;99.90;;;;;;5055001;28;20589;-64
2022/05/17 05:04:28;;;;;;;11.07;6.03;;;15.60;99.90;;;;;;5054569;28;20202;-64
2022/05/17 05:06:57;;;;;;;9.77;6.07;;;15.60;99.90;;;;;;5054553;28;20196;-64
2022/05/17 05:09:24;;;;;;;8.53;6.07;;;15.70;99.90;;;;;;5054241;28;20541;-64
2022/05/17 05:11:51;;;;;;;8.50;6.23;;;16.00;99.90;;;;;;5054878;28;20204;-64
2022/05/17 05:14:18;;;;;;;7.43;5.80;;;16.10;99.90;;;;;;5054725;28;20220;-65
2022/05/17 05:16:45;;;;;;;6.67;5.10;;;16.40;99.90;;;;;;5054638;28;20201;-64
2022/05/17 05:19:12;;;;;;;9.03;5.87;;;16.60;99.90;;;;;;5054756;28;20200;-64
2022/05/17 05:21:39;;;;;;;8.67;5.60;;;16.70;99.90;;;;;;5054572;28;20194;-64
2022/05/17 05:24:10;;;;;;;5.37;4.60;;;16.80;99.90;;;;;;5053999;28;20195;-63
2022/05/17 05:26:38;;;;;;;6.73;5.00;;;16.80;99.90;;;;;;5054464;28;20205;-64
2022/05/17 05:29:06;;;;;;;6.97;5.17;;;17.00;99.90;;;;;;5053979;28;20594;-64
2022/05/17 05:31:33;;;;;;;9.63;5.70;;;17.10;99.90;;;;;;5054418;28;20203;-64
2022/05/17 05:34:00;;;;;;;9.60;5.97;;;16.90;99.90;;;;;;5054499;28;20205;-63
2022/05/17 05:36:28;;;;;;;12.67;6.03;;;16.90;99.90;;;;;;5054319;28;20288;-64
2022/05/17 05:38:55;;;;;;;10.20;5.73;;;16.90;99.90;;;;;;5054180;28;20211;-64
2022/05/17 05:41:23;;;;;;;15.03;6.23;;;16.80;99.90;;;;;;5053904;28;20680;-64
2022/05/17 05:43:50;;;;;;;9.77;5.77;;;16.80;99.90;;;;;;5053713;28;20663;-63
2022/05/17 05:46:17;;;;;;;8.70;5.70;;;16.80;99.90;;;;;;5053633;28;20249;-63
2022/05/17 05:48:44;;;;;;;12.07;6.20;;;17.00;99.90;;;;;;5053504;28;20710;-63
2022/05/17 05:51:11;;;;;;;20.60;6.10;;;17.20;99.90;;;;;;5054027;28;20208;-63
2022/05/17 05:53:38;;;;;;;17.03;6.77;;;17.10;99.90;;;;;;5052849;28;20710;-64
2022/05/17 05:56:06;;;;;;;9.70;5.87;;;17.10;99.90;;;;;;5053850;28;20210;-64
2022/05/17 05:58:36;;;;;;;10.33;5.73;;;17.00;99.90;;;;;;5053792;28;20191;-64
2022/05/17 06:01:04;;;;;;;11.43;5.87;;;17.10;99.90;;;;;;5053634;28;20179;-64
2022/05/17 06:03:31;;;;;;;7.43;5.30;;;17.30;99.90;;;;;;5053799;28;20211;-63
2022/05/17 06:05:59;;;;;;;8.43;5.57;;;17.40;99.90;;;;;;5053859;28;20656;-63
2022/05/17 06:08:26;;;;;;;5.97;4.73;;;17.50;99.90;;;;;;5053326;28;20679;-64
2022/05/17 06:10:53;;;;;;;6.93;4.50;;;17.70;99.90;;;;;;5053672;28;20207;-64
2022/05/17 06:13:20;;;;;;;6.03;4.70;;;17.80;99.90;;;;;;5053608;28;20202;-64
2022/05/17 06:15:51;;;;;;;5.53;4.53;;;17.90;99.90;;;;;;5053729;28;20285;-64
2022/05/17 06:18:18;;;;;;;7.23;4.07;;;17.90;99.90;;;;;;5053717;28;20205;-63
2022/05/17 06:20:50;;;;;;;6.87;4.00;;;17.80;99.90;;;;;;5053412;28;20615;-63
2022/05/17 06:23:18;;;;;;;6.00;4.60;;;17.80;99.90;;;;;;5053457;28;20236;-64
2022/05/17 06:25:45;;;;;;;6.87;4.67;;;17.50;99.90;;;;;;5053227;28;20202;-64
2022/05/17 06:28:12;;;;;;;8.27;4.73;;;17.50;99.90;;;;;;5053062;28;20203;-64
2022/05/17 06:30:41;;;;;;;5.90;4.73;;;17.70;99.90;;;;;;5053211;28;20207;-64
2022/05/17 06:33:11;;;;;;;5.23;4.73;;;17.80;99.90;;;;;;5052927;28;20453;-63
2022/05/17 06:35:38;;;;;;;6.40;4.07;;;18.10;99.90;;;;;;5053233;28;20245;-64
2022/05/17 06:38:06;;;;;;;6.83;4.27;;;18.20;99.90;;;;;;5053323;28;20210;-64
2022/05/17 06:40:33;;;;;;;6.07;4.33;;;18.20;99.90;;;;;;5053020;28;20200;-64
2022/05/17 06:43:01;;;;;;;5.93;4.50;;;18.20;99.90;;;;;;5052735;28;20199;-64
2022/05/17 06:45:28;;;;;;;7.97;4.80;;;18.60;99.90;;;;;;5052938;28;20199;-64
2022/05/17 06:47:55;;;;;;;5.20;4.30;;;18.80;99.90;;;;;;5052918;28;20224;-64
2022/05/17 06:50:23;;;;;;;5.43;4.77;;;19.20;99.90;;;;;;5052801;28;20546;-65
2022/05/17 06:52:50;;;;;;;6.67;4.47;;;19.60;99.90;;;;;;5052875;28;20227;-65
2022/05/17 06:55:17;;;;;;;7.43;4.77;;;20.00;99.90;;;;;;5052572;28;20204;-65
2022/05/17 06:57:44;;;;;;;6.13;4.47;;;20.20;99.90;;;;;;5052662;28;20196;-64
2022/05/17 07:00:14;;;;;;;5.00;4.30;;;20.40;99.90;;;;;;5052625;28;20290;-63
2022/05/17 07:02:41;;;;;;;9.02;4.70;;;20.20;99.90;;;;;;5052670;28;20209;-64
2022/05/17 07:05:10;;;;;;;10.17;4.43;;;20.10;99.90;;;;;;5052162;28;20201;-64
2022/05/17 07:07:39;;;;;;;6.07;4.72;;;19.90;99.90;;;;;;5052666;28;20207;-64
2022/05/17 07:13:12;;;;;;;13.20;4.57;;;19.70;99.90;;;;;;5052760;28;20172;-65
2022/05/17 07:15:40;;;;;;;7.00;4.40;;;19.50;99.90;;;;;;5052641;28;20188;-64
2022/05/17 07:18:08;;;;;;;7.57;4.60;;;19.60;99.90;;;;;;5052148;28;20211;-64
2022/05/17 07:20:36;;;;;;;10.13;5.20;;;19.60;99.90;;;;;;5052424;28;20218;-64
2022/05/17 07:23:04;;;;;;;6.60;4.83;;;19.60;99.90;;;;;;5052353;28;20209;-64
2022/05/17 07:25:32;;;;;;;8.03;5.10;;;19.70;99.90;;;;;;5052220;28;20203;-65
2022/05/17 07:27:59;;;;;;;8.00;5.00;;;19.90;99.90;;;;;;5051936;28;20299;-63
2022/05/17 07:30:27;;;;;;;6.27;5.17;;;20.10;99.90;;;;;;5051889;28;20630;-64
2022/05/17 07:32:54;;;;;;;7.43;4.60;;;20.20;99.90;;;;;;5051950;28;20688;-63
2022/05/17 07:35:21;;;;;;;8.07;4.25;;;20.40;99.90;;;;;;5052216;28;20199;-64
2022/05/17 07:37:48;;;;;;;6.78;4.38;;;20.40;99.90;;;;;;5052286;28;20257;-64
2022/05/17 07:40:18;;;;;;;7.00;3.97;;;20.70;99.90;;;;;;5051945;28;20599;-64
2022/05/17 07:42:46;;;;;;;8.17;4.07;;;20.60;99.90;;;;;;5052187;28;20207;-65
2022/05/17 07:45:14;;;;;;;9.93;4.47;;;20.60;99.90;;;;;;5051938;28;20670;-64
2022/05/17 07:47:41;;;;;;;6.68;4.18;;;20.60;99.90;;;;;;5052103;28;20222;-64
2022/05/17 07:50:16;;;;;;;7.38;4.38;;;20.80;99.90;;;;;;5052092;28;20237;-64
2022/05/17 07:52:44;;;;;;;8.95;4.10;;;20.90;99.90;;;;;;5052046;28;20630;-64
2022/05/17 07:55:12;;;;;;;7.78;4.70;;;21.10;99.90;;;;;;5051942;28;20207;-65
2022/05/17 07:57:40;;;;;;;9.43;4.68;;;21.00;99.90;;;;;;5051758;28;20531;-65
2022/05/17 08:00:09;;;;;;;10.82;5.18;;;21.00;99.90;;;;;;5051976;28;20226;-64
2022/05/17 08:02:36;;;;;;;9.95;4.65;;;21.10;99.90;;;;;;5052001;28;20257;-64
2022/05/17 08:05:04;;;;;;;8.82;4.88;;;21.20;99.90;;;;;;5051997;28;20214;-64
2022/05/17 08:07:31;;;;;;;8.02;4.38;;;21.30;99.90;;;;;;5051883;28;20215;-64
2022/05/17 08:09:58;;;;;;;8.57;4.10;;;21.50;99.90;;;;;;5051879;28;20230;-65
2022/05/17 08:12:25;;;;;;;9.38;4.05;;;21.50;99.90;;;;;;5051590;28;20204;-65
2022/05/17 08:14:54;;;;;;;5.45;3.10;;;21.80;99.90;;;;;;5051957;28;20192;-66
2022/05/17 08:17:21;;;;;;;5.32;2.90;;;22.10;99.90;;;;;;5053757;28;20489;-65
2022/05/17 08:19:48;;;;;;;7.55;3.25;;;22.30;99.90;;;;;;5055765;28;20619;-65
2022/05/17 08:22:16;;;;;;;7.60;3.38;;;22.30;99.90;;;;;;5055637;28;20200;-65
2022/05/17 08:27:37;;;;;;;9.18;3.53;;;22.40;99.90;;;;;;5055289;28;20713;-65
2022/05/17 08:30:10;;;;;;;7.60;4.00;;;22.40;99.90;;;;;;5055146;28;20325;-66
2022/05/17 08:35:29;;;;;;;6.75;3.42;;;22.20;99.90;;;;;;5055269;28;20715;-65
2022/05/17 08:37:56;;;;;;;7.00;3.70;;;22.40;99.90;;;;;;5055532;28;20203;-65
2022/05/17 08:40:24;;;;;;;11.02;3.63;;;22.50;99.90;;;;;;5055127;28;20665;-65
2022/05/17 08:43:00;;;;;;;7.22;3.80;;;22.30;99.90;;;;;;5055011;28;20199;-66
2022/05/17 08:45:41;;;;;;;7.75;3.50;;;22.40;99.90;;;;;;5055372;28;20179;-66
2022/05/17 08:48:17;;;;;;;5.03;3.10;;;22.40;99.90;;;;;;5055319;28;20184;-65
2022/05/17 08:50:46;;;;;;;5.15;2.90;;;22.40;93.50;;;;;;5055191;28;20227;-65
2022/05/17 08:53:17;;;;;;;6.65;3.35;;;22.40;85.40;;;;;;5055262;28;20230;-65
2022/05/17 08:55:46;;;;;;;6.30;2.90;;;22.60;92.40;;;;;;5055093;28;20210;-66
2022/05/17 08:58:17;;;;;;;8.82;2.90;;;22.80;40.90;;;;;;5055047;28;20540;-65
2022/05/17 09:00:48;;;;;;;6.80;2.30;;;22.70;27.80;;;;;;5054751;28;20621;-66
2022/05/17 09:03:31;;;;;;;4.18;2.15;;;22.90;21.30;;;;;;5055118;28;20190;-65
2022/05/17 09:06:08;;;;;;;4.63;2.30;;;23.20;22.10;;;;;;5055014;28;20184;-65
2022/05/17 09:08:42;;;;;;;5.18;1.98;;;23.20;13.00;;;;;;5054607;28;20641;-66
2022/05/17 09:11:19;;;;;;;3.58;1.70;;;23.20;3.80;;;;;;5054880;28;20306;-66
2022/05/17 09:13:52;;;;;;;6.18;1.80;;;23.20;1.00;;;;;;5054943;28;20191;-66
2022/05/17 09:16:22;;;;;;;3.97;1.70;;;23.60;1.00;;;;;;5055137;28;20190;-66
2022/05/17 09:18:51;;;;;;;3.17;1.60;;;23.40;1.00;;;;;;5055013;28;20184;-66
2022/05/17 09:21:30;;;;;;;2.17;1.80;;;23.40;1.00;;;;;;5054297;28;20656;-65
2022/05/17 09:23:59;;;;;;;4.22;1.77;;;23.50;1.00;;;;;;5054524;28;20207;-65
2022/05/17 09:26:29;;;;;;;4.05;1.98;;;23.40;1.00;;;;;;5054189;28;20269;-65
2022/05/17 09:29:02;;;;;;;4.05;2.10;;;23.10;1.00;;;;;;5052869;28;20239;-65
2022/05/17 09:31:33;;;;;;;8.27;2.40;;;23.10;1.00;;;;;;5054670;28;20219;-65
2022/05/17 09:34:04;;;;;;;4.38;2.03;;;23.20;1.00;;;;;;5054516;28;20179;-65
2022/05/17 09:36:40;;;;;;;6.78;2.38;;;23.20;1.00;;;;;;5054072;28;20192;-65
2022/05/17 09:39:09;;;;;;;4.55;1.90;;;23.10;1.00;;;;;;5054314;28;20184;-65
2022/05/17 09:41:40;;;;;;;2.80;1.85;;;22.90;1.00;;;;;;5054340;28;20207;-66
2022/05/17 09:44:12;;;;;;;5.72;2.10;;;22.80;1.00;;;;;;5054216;28;20220;-65
2022/05/17 09:46:44;;;;;;;10.23;2.47;;;22.80;1.00;;;;;;5054235;28;20556;-65
2022/05/17 09:54:56;;;;;;;6.45;2.15;;;22.90;1.00;;;;;;5053961;28;20232;-65
2022/05/17 09:57:26;;;;;;;3.78;1.90;;;22.90;1.00;;;;;;5054060;28;20231;-65
2022/05/17 09:59:56;;;;;;;4.45;1.55;;;23.10;1.00;;;;;;5053986;28;20207;-63
2022/05/17 10:02:42;;;;;;;4.05;1.70;;;23.30;1.00;;;;;;5053960;28;20547;-63
2022/05/17 10:05:17;;;;;;;3.42;1.70;;;23.20;1.00;;;;;;5053891;28;20183;-62
2022/05/17 10:07:51;;;;;;;4.20;1.75;;;23.30;1.00;;;;;;5053465;28;20602;-63
2022/05/17 10:10:30;;;;;;;3.25;1.67;;;23.20;1.00;;;;;;5053763;28;20211;-63
2022/05/17 10:13:03;;;;;;;5.72;2.00;;;23.10;1.00;;;;;;5053356;28;20711;-64
2022/05/17 10:15:34;;;;;;;3.42;2.00;;;23.20;1.00;;;;;;5053596;28;20184;-64
2022/05/17 10:18:09;;;;;;;4.10;1.92;;;23.20;1.00;;;;;;5053353;28;20283;-63
2022/05/17 10:20:42;;;;;;;3.72;2.20;;;23.50;1.00;;;;;;5053440;28;20178;-63
2022/05/17 10:23:17;;;;;;;4.15;2.28;;;23.60;1.00;;;;;;5053360;28;20632;-63
2022/05/17 10:25:49;;;;;;;2.80;1.63;;;24.10;1.00;;;;;;5053446;28;20175;-63
2022/05/17 10:28:20;;;;;;;3.63;2.00;;;24.50;1.00;;;;;;5053166;28;20219;-63
2022/05/17 10:30:52;;;;;;;17.13;2.90;;;24.80;1.00;;;;;;5053380;28;20621;-64
2022/05/17 10:33:32;;;;;;;5.35;2.00;;;25.30;1.00;;;;;;5053342;28;20287;-64
2022/05/17 10:36:02;;;;;;;3.22;1.63;;;26.10;1.00;;;;;;5053278;28;20267;-63
2022/05/17 10:38:34;;;;;;;4.38;1.80;;;26.50;1.00;;;;;;5053271;28;20250;-64
2022/05/17 10:41:05;;;;;;;3.42;1.70;;;26.50;1.00;;;;;;5052760;28;20191;-64
2022/05/17 10:43:36;;;;;;;4.10;1.92;;;25.80;1.00;;;;;;5053152;28;20199;-64
2022/05/17 10:46:11;;;;;;;5.05;1.88;;;25.40;1.00;;;;;;5053253;28;20195;-63
2022/05/17 10:48:51;;;;;;;4.18;1.88;;;25.20;1.00;;;;;;5052952;28;20191;-63
2022/05/17 10:51:26;;;;;;;4.95;1.98;;;25.10;1.00;;;;;;5053014;28;20222;-63
2022/05/17 10:54:02;;;;;;;3.85;1.75;;;25.40;1.00;;;;;;5052917;28;20294;-64
2022/05/17 10:56:41;;;;;;;3.58;1.60;;;25.40;1.00;;;;;;5052957;28;20195;-64
2022/05/17 10:59:15;;;;;;;7.55;2.17;;;25.00;1.00;;;;;;5052781;28;20196;-63
2022/05/17 11:01:51;;;;;;;3.70;2.05;;;24.90;1.00;;;;;;5052827;28;20167;-63
2022/05/17 11:05:02;;;;;;;4.15;1.75;;;25.60;1.00;;;;;;5052451;28;20222;-63
2022/05/17 11:07:42;;;;;;;3.25;1.80;;;26.20;1.00;;;;;;5052701;28;20188;-64
2022/05/17 11:10:19;;;;;;;2.92;1.75;;;27.00;1.00;;;;;;5052591;28;20761;-63
2022/05/17 11:12:49;;;;;;;4.40;1.55;;;26.90;1.00;;;;;;5052599;28;20180;-64
2022/05/17 11:15:19;;;;;;;4.15;1.90;;;27.10;1.00;;;;;;5052519;28;20240;-63
2022/05/17 11:17:51;;;;;;;4.25;1.92;;;27.50;1.00;;;;;;5052209;28;20226;-63
2022/05/17 11:20:25;;;;;;;4.35;1.98;;;27.30;1.00;;;;;;5052306;28;20253;-63
2022/05/17 11:23:03;;;;;;;3.22;1.52;;;27.00;1.00;;;;;;5052649;28;20288;-63
2022/05/17 11:25:56;;;;;;;3.90;1.63;;;27.00;1.00;;;;;;5052351;28;20230;-64
2022/05/17 11:28:55;;;;;;;3.00;1.67;;;27.30;1.00;;;;;;5051999;28;20220;-64
2022/05/17 11:31:36;;;;;;;2.05;1.40;;;27.20;1.00;;;;;;5046952;28;20211;-64
2022/05/17 11:34:32;;;;;;;3.85;1.70;;;27.40;1.00;;;;;;5052044;28;20184;-63
2022/05/17 11:37:03;;;;;;;2.72;1.55;;;27.30;1.00;;;;;;5052072;28;20649;-64
2022/05/17 11:39:47;;;;;;;4.22;1.60;;;27.40;1.00;;;;;;5051944;28;20238;-64
2022/05/17 11:42:31;;;;;;;4.32;1.55;;;27.70;1.00;;;;;;5052499;28;20210;-65
2022/05/17 11:45:18;;;;;;;4.88;1.60;;;27.80;1.00;;;;;;5052173;28;20188;-64
2022/05/17 11:47:55;;;;;;;5.05;1.52;;;28.00;1.00;;;;;;5052192;28;20190;-65
2022/05/17 11:50:43;;;;;;;3.33;1.65;;;28.10;1.00;;;;;;5052156;28;20326;-65
2022/05/17 11:53:44;;;;;;;3.40;1.67;;;28.30;1.00;;;;;;5055711;28;20210;-65
2022/05/17 11:56:14;;;;;;;4.47;1.98;;;28.90;1.00;;;;;;5056177;28;20206;-66
2022/05/17 11:58:42;;;;;;;2.83;1.52;;;28.30;1.00;;;;;;5056205;28;20195;-65
2022/05/17 12:01:50;;;;;;;5.45;1.77;;;28.10;1.00;;;;;;5056173;28;20198;-65
2022/05/17 12:04:42;;;;;;;4.53;1.50;;;28.20;1.00;;;;;;4974883;28;20198;-64
2022/05/17 12:07:29;;;;;;;3.72;1.60;;;28.80;1.00;;;;;;4974795;28;20309;-64
2022/05/17 12:10:09;;;;;;;3.45;1.50;;;28.70;1.00;;;;;;4974746;28;20195;-65
2022/05/17 12:12:54;;;;;;;2.47;1.48;;;28.90;1.00;;;;;;4974681;28;20194;-65
2022/05/17 12:15:39;;;;;;;4.85;1.45;;;28.90;1.00;;;;;;4974716;28;20210;-65
2022/05/17 12:18:38;;;;;;;2.92;1.30;;;28.80;1.00;;;;;;4974574;28;20783;-65
2022/05/17 12:21:44;;;;;;;2.00;1.27;;;28.80;1.00;;;;;;4974567;28;20212;-65
2022/05/17 12:24:38;;;;;;;3.70;1.65;;;29.30;1.00;;;;;;4968520;28;20714;-65
2022/05/17 12:27:17;;;;;;;2.03;1.40;;;29.20;1.00;;;;;;4974550;28;20703;-66
2022/05/17 12:32:31;;;;;;;5.18;1.60;;;28.20;1.00;;;;;;4933180;28;20265;-64
2022/05/17 12:34:58;;;;;;;2.67;1.30;;;28.60;1.00;;;;;;4974283;28;20655;-64
2022/05/17 12:37:27;;;;;;;4.35;1.25;;;28.90;1.00;;;;;;4974186;28;20349;-64
2022/05/17 12:45:29;;;;;;;6.47;1.58;;;28.50;1.00;;;;;;5055286;28;20215;-65
2022/05/17 12:47:58;;;;;;;4.13;1.42;;;28.90;1.00;;;;;;5055259;28;20199;-65
2022/05/17 12:50:31;;;;;;;2.65;1.55;;;29.20;1.00;;;;;;5055115;28;20212;-65
2022/05/17 12:53:00;;;;;;;3.63;1.70;;;30.00;1.00;;;;;;5054889;28;20675;-65
2022/05/17 12:55:29;;;;;;;3.08;1.38;;;29.60;1.00;;;;;;5054973;28;20532;-65
2022/05/17 12:58:16;;;;;;;2.53;1.30;;;28.10;1.00;;;;;;5054824;28;20668;-65
2022/05/17 13:00:43;;;;;;;4.30;1.55;;;27.60;1.00;;;;;;5054762;28;20195;-64
2022/05/17 13:03:17;;;;;;;6.07;1.83;;;27.50;1.00;;;;;;5054543;28;20570;-63
2022/05/17 13:05:48;;;;;;;3.08;1.40;;;28.10;1.00;;;;;;5055146;28;20187;-64
2022/05/17 13:08:19;;;;;;;3.47;1.70;;;28.20;1.00;;;;;;5054943;28;20220;-65
2022/05/17 13:11:01;;;;;;;4.18;1.90;;;28.30;1.00;;;;;;5054826;28;20569;-66
2022/05/17 13:13:32;;;;;;;3.67;1.50;;;28.70;1.00;;;;;;5054713;28;20180;-66
2022/05/17 13:16:04;;;;;;;4.03;1.40;;;28.80;1.00;;;;;;5054719;28;20266;-66
2022/05/17 13:18:39;;;;;;;2.55;1.45;;;29.30;1.00;;;;;;5054763;28;20180;-65
2022/05/17 13:21:09;;;;;;;4.93;1.52;;;29.60;1.00;;;;;;5054597;28;20583;-64
2022/05/17 13:23:37;;;;;;;5.60;1.52;;;29.50;1.00;;;;;;5054081;28;20206;-64
2022/05/17 13:26:06;;;;;;;3.05;1.38;;;29.40;1.00;;;;;;5054408;28;20195;-65
2022/05/17 13:28:36;;;;;;;2.90;1.60;;;29.70;1.00;;;;;;5054185;28;20302;-64
2022/05/17 13:31:08;;;;;;;4.05;1.50;;;29.10;1.00;;;;;;5054126;28;20199;-65